Grand Narrows, Canada
Current Conditions -  °F | °C
As of 11:00 PM on Tuesday 25 Nov 2014 (Local Time) from CYPD Reporting Station
Overcast Overcast  
Wind Chill: 13°   Ceiling: 6500
Heat Index: 13°   Visibility: 9mi
Dew Point:   Wind: 12mph
Humidity: 72%   Direction: 240°WSW
Pressure: 29.85"   Gusts: 18mph
Location:  45.95°N, 60.78°W
Report Text: CYPD 260300Z AUTO 24010G16KT 9SM OVC065 13/08 A2985 RMK PRESRR SLP110
Loading
Personal Weather Stations






























Interactive Weather Map New forecast layout! Learn more

10-Day Weather Forecast

Advertisements
Track Severe Weather on mobile